Terminal Aerodrome Forecast
Issued by NWS

Home | Current Version | Previous Version | Graphics & Text | Print | Product List | Glossary Off
Versions: 1 2 3 4 5 6 7 8 9 10 11 12 13 14 15 16 17 18 19 20 21 22 23 24 25

084
FTUS43 KTOP 171732
TAFFOE
TAF
KFOE 171732Z 1718/1818 31012KT P6SM SKC
     FM180100 28006KT P6SM FEW200
     FM181400 21008KT P6SM VCSH SCT060 SCT200=

USA.gov is the U.S. government's official web portal to all federal, state and local government web resources and services.